Time;durP1;ratioP1;P1;durP2;ratioP2;P2;SDS_P1;SDS_P2;PMS_P1;PMS_P2;Temp;Humidity;BMP_temperature;BMP_pressure;BME280_temperature;BME280_humidity;BME280_pressure;Samples;Min_cycle;Max_cycle;Signal;HPM_P1;HPM_P2
2023/08/12 00:01:35;;;;;;;3.70;1.45;;;19.80;99.90;;;;;;5031210;28;20045;-71
2023/08/12 00:04:00;;;;;;;2.03;1.10;;;19.70;99.90;;;;;;5031417;28;20041;-71
2023/08/12 00:06:26;;;;;;;4.72;1.40;;;19.70;99.90;;;;;;5029900;28;20064;-71
2023/08/12 00:08:51;;;;;;;3.03;1.48;;;19.70;99.90;;;;;;5046439;28;20116;-71
2023/08/12 00:11:17;;;;;;;5.13;1.65;;;19.70;99.90;;;;;;5031092;28;20127;-71
2023/08/12 00:13:43;;;;;;;4.30;1.38;;;19.70;99.90;;;;;;5031198;28;20073;-71
2023/08/12 00:16:08;;;;;;;3.17;1.35;;;19.60;99.90;;;;;;5030813;28;20495;-71
2023/08/12 00:18:36;;;;;;;3.53;1.20;;;19.60;99.90;;;;;;5030899;28;20038;-71
2023/08/12 00:21:06;;;;;;;3.95;1.27;;;19.60;99.90;;;;;;5031152;28;20114;-71
2023/08/12 00:23:32;;;;;;;2.40;1.10;;;19.60;99.90;;;;;;5029759;28;20046;-71
2023/08/12 00:25:58;;;;;;;3.17;1.27;;;19.60;99.90;;;;;;5029630;28;20049;-71
2023/08/12 00:28:24;;;;;;;2.35;1.13;;;19.50;99.90;;;;;;5030790;28;20511;-71
2023/08/12 00:30:49;;;;;;;3.67;1.02;;;19.50;99.90;;;;;;5046098;28;20048;-71
2023/08/12 00:33:15;;;;;;;4.28;1.00;;;19.50;99.90;;;;;;5046128;28;20045;-71
2023/08/12 00:35:40;;;;;;;4.75;1.33;;;19.50;99.90;;;;;;5030042;28;20033;-71
2023/08/12 00:38:06;;;;;;;3.53;1.10;;;19.50;99.90;;;;;;5030149;28;20117;-71
2023/08/12 00:40:31;;;;;;;6.32;1.25;;;19.40;99.90;;;;;;5030816;28;20041;-71
2023/08/12 00:42:57;;;;;;;4.00;1.20;;;19.40;99.90;;;;;;5013113;28;20033;-71
2023/08/12 00:45:23;;;;;;;2.85;1.10;;;19.50;99.90;;;;;;5029643;28;20407;-71
2023/08/12 00:47:49;;;;;;;2.80;1.20;;;19.40;99.90;;;;;;5030675;28;20068;-71
2023/08/12 00:50:15;;;;;;;4.40;1.42;;;19.40;99.90;;;;;;5029275;28;20095;-71
2023/08/12 00:52:41;;;;;;;3.63;1.45;;;19.40;99.90;;;;;;5029271;28;20037;-71
2023/08/12 00:55:07;;;;;;;4.13;1.33;;;19.40;99.90;;;;;;5030507;28;20437;-71
2023/08/12 00:57:33;;;;;;;3.13;1.73;;;19.40;99.90;;;;;;5030642;28;20091;-71
2023/08/12 00:59:59;;;;;;;3.20;1.33;;;19.40;99.90;;;;;;5028974;28;20041;-71
2023/08/12 01:02:25;;;;;;;4.85;1.30;;;19.30;99.90;;;;;;5030709;28;20391;-71
2023/08/12 01:04:51;;;;;;;3.45;1.67;;;19.30;99.90;;;;;;5030603;28;20037;-71
2023/08/12 01:07:16;;;;;;;4.07;1.90;;;19.30;99.90;;;;;;5030388;28;20129;-71
2023/08/12 01:09:42;;;;;;;3.88;1.48;;;19.30;99.90;;;;;;5030553;28;20045;-71
2023/08/12 01:12:26;;;;;;;3.50;1.23;;;19.30;99.90;;;;;;5029064;28;20418;-71
2023/08/12 01:15:12;;;;;;;4.43;1.48;;;19.30;99.90;;;;;;5030531;28;20128;-71
2023/08/12 01:17:41;;;;;;;;;;;19.30;99.90;;;;;;5030760;28;20492;-71
2023/08/12 01:20:09;;;;;;;3.63;1.50;;;19.30;99.90;;;;;;5045569;28;19917;-71
2023/08/12 01:22:41;;;;;;;4.68;1.88;;;19.30;99.90;;;;;;5030337;28;20442;-71
2023/08/12 01:25:07;;;;;;;4.65;1.70;;;19.20;99.90;;;;;;5028917;28;20095;-71
2023/08/12 01:27:36;;;;;;;3.63;1.63;;;19.30;99.90;;;;;;5030153;28;20141;-71
2023/08/12 01:30:05;;;;;;;3.35;1.60;;;19.20;99.90;;;;;;5028913;28;20077;-71
2023/08/12 01:32:49;;;;;;;6.25;1.92;;;19.20;99.90;;;;;;5030209;28;20120;-71
2023/08/12 01:35:18;;;;;;;5.97;2.08;;;19.20;99.90;;;;;;5030185;28;20038;-71
2023/08/12 01:37:45;;;;;;;3.85;1.80;;;19.20;99.90;;;;;;5028741;28;20042;-71
2023/08/12 01:40:13;;;;;;;4.50;1.73;;;19.20;99.90;;;;;;5030203;28;20125;-71
2023/08/12 01:42:40;;;;;;;6.20;1.65;;;19.20;99.90;;;;;;5030206;28;20037;-71
2023/08/12 01:45:06;;;;;;;5.07;1.83;;;19.10;99.90;;;;;;5028794;28;20059;-71
2023/08/12 01:47:32;;;;;;;6.55;2.08;;;19.20;99.90;;;;;;5030141;28;20042;-71
2023/08/12 01:49:58;;;;;;;5.80;2.72;;;19.10;99.90;;;;;;5033573;28;20099;-71
2023/08/12 01:52:24;;;;;;;5.53;2.30;;;19.10;99.90;;;;;;5033987;28;20037;-71
2023/08/12 01:54:50;;;;;;;6.60;2.78;;;19.00;99.90;;;;;;5032696;28;20037;-71
2023/08/12 01:57:16;;;;;;;4.75;2.20;;;19.10;99.90;;;;;;5033453;28;20120;-71
2023/08/12 01:59:43;;;;;;;5.22;2.35;;;19.10;99.90;;;;;;5032222;28;20045;-71
2023/08/12 02:02:09;;;;;;;4.05;1.77;;;19.00;99.90;;;;;;5032316;28;20126;-71
2023/08/12 02:04:37;;;;;;;7.60;2.13;;;19.00;99.90;;;;;;5033302;28;20080;-71
2023/08/12 02:07:03;;;;;;;5.65;2.63;;;19.00;99.90;;;;;;5033248;28;20048;-71
2023/08/12 02:09:29;;;;;;;6.32;2.58;;;19.00;99.90;;;;;;5033463;28;20120;-71
2023/08/12 02:11:54;;;;;;;5.60;1.95;;;19.00;99.90;;;;;;5033350;28;20041;-71
2023/08/12 02:14:20;;;;;;;6.32;2.35;;;19.00;99.90;;;;;;5032101;28;20074;-71
2023/08/12 02:16:45;;;;;;;5.68;2.50;;;19.00;99.90;;;;;;5033233;28;20034;-71
2023/08/12 02:19:11;;;;;;;4.20;2.20;;;19.00;99.90;;;;;;5015172;28;20565;-71
2023/08/12 02:21:37;;;;;;;6.03;2.67;;;19.00;99.90;;;;;;5033121;28;20045;-71
2023/08/12 02:24:02;;;;;;;7.85;2.83;;;19.00;99.90;;;;;;5033303;28;20099;-71
2023/08/12 02:26:28;;;;;;;7.20;2.83;;;19.00;99.90;;;;;;5032868;28;20495;-71
2023/08/12 02:28:54;;;;;;;10.90;3.42;;;19.00;99.90;;;;;;5033015;28;20042;-71
2023/08/12 02:31:19;;;;;;;7.00;3.60;;;19.00;99.90;;;;;;5031725;28;20041;-71
2023/08/12 02:33:45;;;;;;;6.38;3.10;;;19.00;99.90;;;;;;5031517;28;20077;-71
2023/08/12 02:36:10;;;;;;;7.88;3.10;;;19.00;99.90;;;;;;5032891;28;20111;-71
2023/08/12 02:38:36;;;;;;;9.38;3.22;;;19.00;99.90;;;;;;5032743;28;20036;-71
2023/08/12 02:41:01;;;;;;;8.38;3.65;;;19.10;99.90;;;;;;5033193;28;20048;-71
2023/08/12 02:43:27;;;;;;;8.00;3.60;;;19.00;99.90;;;;;;5032005;28;20103;-71
2023/08/12 02:45:53;;;;;;;6.45;2.55;;;19.10;99.90;;;;;;5032903;28;20048;-71
2023/08/12 02:48:18;;;;;;;7.35;3.13;;;19.00;99.90;;;;;;5014750;28;20045;-71
2023/08/12 02:50:44;;;;;;;7.20;3.22;;;19.00;99.90;;;;;;5032780;28;20048;-71
2023/08/12 02:53:09;;;;;;;8.93;3.35;;;19.10;99.90;;;;;;5032816;28;20033;-71
2023/08/12 02:55:36;;;;;;;6.97;3.33;;;19.10;99.90;;;;;;5032653;28;20041;-71
2023/08/12 02:58:03;;;;;;;10.63;3.80;;;19.10;99.90;;;;;;5014700;28;20041;-71
2023/08/12 03:00:28;;;;;;;9.05;3.35;;;19.10;99.90;;;;;;5014242;28;20044;-71
2023/08/12 03:02:54;;;;;;;10.00;3.95;;;19.10;99.90;;;;;;5030994;28;20411;-71
2023/08/12 03:05:20;;;;;;;9.38;3.55;;;19.10;99.90;;;;;;5031106;28;20045;-71
2023/08/12 03:07:46;;;;;;;9.00;3.60;;;19.10;99.90;;;;;;5032331;28;20044;-71
2023/08/12 03:10:12;;;;;;;8.93;4.00;;;19.10;99.90;;;;;;5031072;28;20124;-71
2023/08/12 03:12:37;;;;;;;7.60;3.55;;;19.00;99.90;;;;;;5032233;28;20120;-71
2023/08/12 03:15:05;;;;;;;8.07;3.70;;;19.10;99.90;;;;;;5032218;28;20037;-71
2023/08/12 03:17:30;;;;;;;9.93;3.92;;;19.10;99.90;;;;;;5030649;28;20037;-71
2023/08/12 03:20:00;;;;;;;6.70;3.53;;;19.10;99.90;;;;;;5047486;28;20045;-71
2023/08/12 03:22:29;;;;;;;8.23;3.35;;;19.10;99.90;;;;;;5047695;28;20091;-71
2023/08/12 03:24:55;;;;;;;6.72;3.10;;;19.10;99.90;;;;;;5032243;28;20041;-71
2023/08/12 03:27:20;;;;;;;9.75;3.40;;;19.10;99.90;;;;;;5031786;28;20503;-71
2023/08/12 03:29:46;;;;;;;9.70;4.00;;;19.00;99.90;;;;;;5046959;28;20156;-71
2023/08/12 03:32:12;;;;;;;9.45;3.88;;;19.00;99.90;;;;;;5031618;28;20120;-71
2023/08/12 03:34:37;;;;;;;7.30;3.67;;;19.00;99.90;;;;;;5031834;28;20510;-71
2023/08/12 03:37:03;;;;;;;13.68;4.47;;;19.00;99.90;;;;;;5030648;28;20514;-71
2023/08/12 03:39:29;;;;;;;11.75;4.10;;;19.00;99.90;;;;;;5013889;28;20480;-71
2023/08/12 03:41:54;;;;;;;9.10;3.85;;;19.00;99.90;;;;;;5031792;28;20082;-71
2023/08/12 03:44:20;;;;;;;9.35;4.50;;;19.00;99.90;;;;;;5031813;28;20112;-71
2023/08/12 03:46:46;;;;;;;8.48;3.58;;;19.00;99.90;;;;;;5030303;28;20045;-71
2023/08/12 03:49:11;;;;;;;9.05;3.80;;;18.90;99.90;;;;;;5031440;28;20483;-71
2023/08/12 03:51:37;;;;;;;7.55;3.78;;;19.00;99.90;;;;;;5031699;28;20076;-71
2023/08/12 03:54:03;;;;;;;7.45;3.50;;;19.00;99.90;;;;;;5031510;28;20057;-71
2023/08/12 03:56:29;;;;;;;9.75;3.67;;;19.00;99.90;;;;;;5030145;28;20046;-71
2023/08/12 03:58:55;;;;;;;7.60;3.78;;;19.00;99.90;;;;;;5030228;28;20056;-71
2023/08/12 04:01:21;;;;;;;8.35;3.85;;;19.00;99.90;;;;;;5030159;28;20037;-70
2023/08/12 04:03:46;;;;;;;11.35;3.30;;;19.00;99.90;;;;;;5031603;28;20407;-71
2023/08/12 04:06:12;;;;;;;8.93;4.03;;;19.00;99.90;;;;;;5030034;28;20053;-71
2023/08/12 04:08:38;;;;;;;9.48;3.97;;;19.00;99.90;;;;;;5030160;28;20091;-71
2023/08/12 04:11:04;;;;;;;10.27;3.67;;;19.00;99.90;;;;;;5029035;28;20496;-71
2023/08/12 04:13:29;;;;;;;7.57;3.60;;;19.10;99.90;;;;;;5029583;28;20049;-71
2023/08/12 04:15:55;;;;;;;7.82;3.28;;;19.00;99.90;;;;;;5030926;28;20030;-71
2023/08/12 04:18:21;;;;;;;7.25;4.40;;;19.00;99.90;;;;;;5046374;28;20098;-71
2023/08/12 04:20:48;;;;;;;10.02;4.03;;;19.00;99.90;;;;;;5046175;28;20033;-71
2023/08/12 04:23:14;;;;;;;7.88;4.07;;;19.00;99.90;;;;;;5031085;28;20034;-71
2023/08/12 04:25:40;;;;;;;8.18;4.03;;;19.00;99.90;;;;;;5029661;28;20535;-71
2023/08/12 04:28:05;;;;;;;8.55;3.83;;;19.00;99.90;;;;;;5013038;28;20057;-71
2023/08/12 04:30:31;;;;;;;10.73;4.97;;;19.00;99.90;;;;;;5030608;28;20077;-71
2023/08/12 04:32:56;;;;;;;9.13;4.05;;;19.10;99.90;;;;;;5030945;28;20376;-71
2023/08/12 04:35:22;;;;;;;10.52;4.50;;;19.10;99.90;;;;;;5030972;28;20458;-71
2023/08/12 04:37:48;;;;;;;8.88;4.32;;;19.10;99.90;;;;;;5030737;28;20614;-71
2023/08/12 04:40:13;;;;;;;8.25;3.72;;;19.10;99.90;;;;;;5045908;28;20041;-71
2023/08/12 04:42:39;;;;;;;7.82;3.83;;;19.10;99.90;;;;;;5030856;28;20457;-71
2023/08/12 04:45:05;;;;;;;10.45;4.47;;;19.10;99.90;;;;;;5029051;28;20052;-71
2023/08/12 04:47:30;;;;;;;9.50;4.47;;;19.10;99.90;;;;;;5030967;28;20124;-71
2023/08/12 04:49:56;;;;;;;10.63;4.40;;;19.10;99.90;;;;;;5029330;28;20137;-71
2023/08/12 04:52:22;;;;;;;11.65;4.32;;;19.10;99.90;;;;;;5013025;28;20132;-71
2023/08/12 04:54:47;;;;;;;9.32;4.75;;;19.10;99.90;;;;;;5013278;28;20440;-71
2023/08/12 04:57:13;;;;;;;8.23;4.10;;;19.10;99.90;;;;;;5030417;28;20071;-71
2023/08/12 04:59:38;;;;;;;11.00;4.57;;;19.10;99.90;;;;;;5029091;28;20042;-71
2023/08/12 05:02:04;;;;;;;11.23;4.80;;;19.10;99.90;;;;;;5030633;28;20629;-71
2023/08/12 05:04:30;;;;;;;11.40;4.55;;;19.10;99.90;;;;;;5030713;28;20185;-71
2023/08/12 05:06:55;;;;;;;10.85;5.18;;;19.10;99.90;;;;;;5030504;28;20189;-71
2023/08/12 05:09:21;;;;;;;8.98;4.15;;;19.10;99.90;;;;;;5029066;28;20045;-71
2023/08/12 05:11:46;;;;;;;9.43;4.78;;;19.10;99.90;;;;;;5029161;28;20037;-71
2023/08/12 05:14:12;;;;;;;10.52;3.83;;;19.10;99.90;;;;;;5030152;28;20041;-71
2023/08/12 05:16:38;;;;;;;10.00;4.32;;;19.10;99.90;;;;;;5030514;28;20525;-71
2023/08/12 05:19:03;;;;;;;8.98;4.55;;;19.10;99.90;;;;;;5045756;28;20077;-71
2023/08/12 05:21:29;;;;;;;12.57;5.10;;;19.10;99.90;;;;;;5030405;28;20535;-71
2023/08/12 05:23:54;;;;;;;10.23;4.68;;;19.10;99.90;;;;;;5033058;28;20179;-71
2023/08/12 05:26:20;;;;;;;8.63;4.47;;;19.10;99.90;;;;;;5033995;28;20048;-71
2023/08/12 05:28:46;;;;;;;12.55;5.20;;;19.10;99.90;;;;;;5032924;28;20038;-71
2023/08/12 05:31:11;;;;;;;13.38;5.28;;;19.10;99.90;;;;;;5049280;28;20396;-71
2023/08/12 05:33:37;;;;;;;12.10;4.95;;;19.10;99.90;;;;;;5034099;28;20115;-71
2023/08/12 05:36:03;;;;;;;11.38;5.15;;;19.20;99.90;;;;;;5032623;28;20052;-71
2023/08/12 05:38:29;;;;;;;11.27;5.30;;;19.20;99.90;;;;;;5034188;28;20123;-71
2023/08/12 05:40:54;;;;;;;11.90;4.78;;;19.20;99.90;;;;;;5034047;28;20033;-71
2023/08/12 05:43:20;;;;;;;10.52;5.00;;;19.20;99.90;;;;;;5033752;28;20037;-71
2023/08/12 05:45:46;;;;;;;12.68;5.35;;;19.20;99.90;;;;;;5032577;28;20053;-71
2023/08/12 05:48:11;;;;;;;10.85;5.45;;;19.30;99.90;;;;;;5033880;28;20037;-71
2023/08/12 05:50:37;;;;;;;11.70;5.40;;;19.30;99.90;;;;;;5033750;28;20107;-71
2023/08/12 05:53:03;;;;;;;13.68;5.80;;;19.30;99.90;;;;;;5033739;28;20033;-71
2023/08/12 05:55:28;;;;;;;14.75;5.93;;;19.40;99.90;;;;;;5015945;28;20061;-71
2023/08/12 05:57:54;;;;;;;12.18;5.88;;;19.40;99.90;;;;;;5032546;28;20037;-71
2023/08/12 06:00:19;;;;;;;12.73;6.22;;;19.40;99.90;;;;;;5033606;28;20124;-71
2023/08/12 06:02:45;;;;;;;13.98;5.53;;;19.50;99.90;;;;;;5032369;28;20049;-71
2023/08/12 06:05:10;;;;;;;11.85;5.47;;;19.50;99.90;;;;;;5015767;28;20048;-71
2023/08/12 06:07:36;;;;;;;10.38;5.40;;;19.60;99.90;;;;;;5032164;28;20057;-71
2023/08/12 06:10:02;;;;;;;11.75;5.05;;;19.70;99.90;;;;;;5048828;28;20120;-71
2023/08/12 06:12:28;;;;;;;12.32;5.30;;;19.70;99.90;;;;;;5031909;28;20037;-71
2023/08/12 06:14:53;;;;;;;10.38;5.28;;;19.80;99.90;;;;;;5048723;28;20042;-71
2023/08/12 06:17:19;;;;;;;12.00;5.32;;;19.80;99.90;;;;;;5048495;28;20045;-71
2023/08/12 06:19:44;;;;;;;9.32;4.90;;;19.90;99.90;;;;;;5033343;28;20052;-71
2023/08/12 06:22:10;;;;;;;11.45;5.65;;;20.00;99.90;;;;;;5033134;28;20041;-71
2023/08/12 06:24:35;;;;;;;9.82;5.00;;;19.90;99.90;;;;;;5033250;28;20044;-71
2023/08/12 06:27:01;;;;;;;11.65;5.07;;;19.90;99.90;;;;;;5031673;28;20051;-71
2023/08/12 06:29:27;;;;;;;11.98;4.80;;;19.90;99.90;;;;;;5033083;28;20049;-71
2023/08/12 06:31:53;;;;;;;10.18;4.88;;;19.90;99.90;;;;;;5031923;28;20088;-71
2023/08/12 06:34:18;;;;;;;12.60;5.25;;;19.80;99.90;;;;;;5031032;28;20044;-71
2023/08/12 06:36:44;;;;;;;12.20;5.15;;;19.80;99.90;;;;;;5015552;28;20045;-71
2023/08/12 06:39:09;;;;;;;10.85;4.95;;;19.80;99.90;;;;;;5032941;28;20457;-71
2023/08/12 06:41:35;;;;;;;9.93;5.03;;;19.80;99.90;;;;;;5032760;28;20199;-72
2023/08/12 06:44:01;;;;;;;11.27;5.18;;;19.80;99.90;;;;;;5031339;28;20050;-71
2023/08/12 06:46:28;;;;;;;12.48;5.93;;;19.90;99.90;;;;;;5032946;28;20041;-71
2023/08/12 06:48:53;;;;;;;11.82;5.38;;;19.90;99.90;;;;;;5032938;28;20077;-71
2023/08/12 06:51:19;;;;;;;11.18;5.10;;;19.90;99.90;;;;;;5032675;28;20084;-71
2023/08/12 06:53:44;;;;;;;12.18;5.75;;;19.90;99.90;;;;;;5032698;28;20116;-71
2023/08/12 06:56:10;;;;;;;13.48;5.68;;;19.90;99.90;;;;;;5032669;28;20116;-71
2023/08/12 06:58:36;;;;;;;12.35;5.53;;;19.90;99.90;;;;;;5032357;28;20038;-71
2023/08/12 07:01:01;;;;;;;12.70;6.45;;;19.90;99.90;;;;;;5047990;28;20439;-71
2023/08/12 07:03:27;;;;;;;13.05;6.45;;;20.00;99.90;;;;;;5064651;28;20502;-71
2023/08/12 07:05:54;;;;;;;14.35;6.38;;;19.90;99.90;;;;;;5047843;28;20053;-71
2023/08/12 07:08:19;;;;;;;15.07;6.65;;;19.90;99.90;;;;;;5047861;28;20042;-71
2023/08/12 07:10:45;;;;;;;13.45;6.38;;;19.90;99.90;;;;;;5014813;28;20045;-71
2023/08/12 07:13:10;;;;;;;15.45;6.30;;;19.90;99.90;;;;;;5030772;28;20561;-71
2023/08/12 07:15:36;;;;;;;18.38;6.15;;;19.90;99.90;;;;;;5032100;28;20034;-71
2023/08/12 07:18:02;;;;;;;15.30;5.75;;;19.90;99.90;;;;;;5032273;28;20049;-71
2023/08/12 07:20:28;;;;;;;17.98;6.78;;;19.90;99.90;;;;;;5030812;28;20056;-71
2023/08/12 07:22:53;;;;;;;14.68;6.75;;;19.90;99.90;;;;;;5014382;28;20037;-71
2023/08/12 07:25:19;;;;;;;14.25;7.40;;;20.00;99.90;;;;;;5030678;28;20076;-71
2023/08/12 07:27:44;;;;;;;12.25;6.25;;;19.90;99.90;;;;;;5030356;28;20057;-71
2023/08/12 07:30:10;;;;;;;15.73;6.40;;;19.90;99.90;;;;;;5031880;28;20044;-71
2023/08/12 07:32:37;;;;;;;13.82;6.00;;;19.90;99.90;;;;;;5031922;28;20045;-71
2023/08/12 07:35:03;;;;;;;13.68;5.95;;;19.90;99.90;;;;;;5030830;28;20245;-71
2023/08/12 07:37:29;;;;;;;12.73;6.38;;;19.90;99.90;;;;;;5030530;28;20088;-71
2023/08/12 07:39:54;;;;;;;17.33;6.97;;;19.90;99.90;;;;;;5030807;28;20399;-71
2023/08/12 07:42:20;;;;;;;14.45;6.72;;;19.90;99.90;;;;;;5030421;28;20562;-71
2023/08/12 07:44:46;;;;;;;16.52;7.30;;;20.00;99.90;;;;;;5031896;28;20451;-71
2023/08/12 07:47:11;;;;;;;13.73;6.55;;;19.90;99.90;;;;;;5030393;28;20096;-71
2023/08/12 07:49:38;;;;;;;16.17;7.00;;;19.90;99.90;;;;;;5030495;28;20375;-71
2023/08/12 07:52:03;;;;;;;17.13;6.10;;;19.90;99.90;;;;;;5031157;28;20499;-71
2023/08/12 07:54:29;;;;;;;15.23;6.75;;;19.90;99.90;;;;;;5030536;28;20124;-71
2023/08/12 07:56:55;;;;;;;13.73;6.78;;;19.90;99.90;;;;;;5031415;28;20068;-71
2023/08/12 07:59:20;;;;;;;14.88;6.32;;;19.90;99.90;;;;;;5031617;28;20044;-71
2023/08/12 08:01:46;;;;;;;14.68;6.50;;;19.90;99.90;;;;;;5031576;28;20404;-71
2023/08/12 08:04:12;;;;;;;16.17;5.85;;;20.00;99.90;;;;;;5031359;28;20551;-71
2023/08/12 08:06:37;;;;;;;12.80;6.20;;;20.00;99.90;;;;;;5029939;28;20037;-71
2023/08/12 08:09:03;;;;;;;13.93;6.75;;;20.00;99.90;;;;;;5031220;28;20081;-71
2023/08/12 08:11:30;;;;;;;13.45;6.13;;;20.00;99.90;;;;;;5029861;28;20074;-71
2023/08/12 08:13:58;;;;;;;12.15;6.10;;;20.00;99.90;;;;;;5031426;28;20032;-71
2023/08/12 08:16:23;;;;;;;11.63;5.70;;;20.00;99.90;;;;;;5030051;28;20038;-71
2023/08/12 08:18:49;;;;;;;10.98;5.82;;;20.00;99.90;;;;;;5031105;28;20037;-71
2023/08/12 08:21:15;;;;;;;11.23;5.13;;;20.00;99.90;;;;;;5029722;28;20041;-71
2023/08/12 08:23:41;;;;;;;13.23;5.95;;;20.00;99.90;;;;;;5046582;28;20036;-71
2023/08/12 08:26:07;;;;;;;11.93;5.25;;;20.00;99.90;;;;;;5045927;28;20123;-72
2023/08/12 08:28:33;;;;;;;13.95;6.60;;;20.00;99.90;;;;;;5030721;28;20061;-71
2023/08/12 08:30:58;;;;;;;13.25;6.20;;;20.00;99.90;;;;;;5046074;28;20056;-72
2023/08/12 08:33:26;;;;;;;12.75;5.95;;;20.00;99.90;;;;;;5029548;28;20037;-71
2023/08/12 08:35:51;;;;;;;14.98;6.47;;;20.00;99.90;;;;;;5030895;28;20091;-72
2023/08/12 08:38:17;;;;;;;13.45;6.00;;;20.00;99.90;;;;;;5029594;28;20259;-72
2023/08/12 08:40:43;;;;;;;11.68;5.80;;;20.00;99.90;;;;;;5030660;28;20037;-71
2023/08/12 08:43:08;;;;;;;12.57;6.43;;;20.00;99.90;;;;;;5030816;28;20037;-71
2023/08/12 08:45:34;;;;;;;14.27;6.63;;;20.00;99.90;;;;;;5046061;28;20053;-71
2023/08/12 08:48:02;;;;;;;14.45;6.15;;;20.00;99.90;;;;;;5030623;28;20052;-71
2023/08/12 08:50:30;;;;;;;12.60;6.13;;;19.90;99.90;;;;;;5030674;28;20068;-71
2023/08/12 08:52:56;;;;;;;10.77;5.97;;;19.90;99.90;;;;;;5030696;28;20046;-71
2023/08/12 08:55:22;;;;;;;11.68;5.93;;;19.90;99.90;;;;;;5045838;28;20167;-71
2023/08/12 08:57:49;;;;;;;14.70;6.53;;;19.90;99.90;;;;;;5032946;28;20037;-71
2023/08/12 09:00:18;;;;;;;11.45;5.40;;;19.90;99.90;;;;;;5037347;28;20038;-71
2023/08/12 09:02:46;;;;;;;10.57;4.55;;;19.90;99.90;;;;;;5052448;28;20507;-71
2023/08/12 09:05:14;;;;;;;12.95;5.75;;;19.90;99.90;;;;;;5037159;28;20072;-71
2023/08/12 09:07:41;;;;;;;9.35;5.07;;;19.90;99.90;;;;;;5036931;28;20037;-71
2023/08/12 09:10:08;;;;;;;9.45;4.60;;;19.80;99.90;;;;;;5037219;28;20069;-71
2023/08/12 09:12:34;;;;;;;8.63;4.50;;;19.80;99.90;;;;;;5069078;28;20419;-71
2023/08/12 09:14:59;;;;;;;8.73;3.92;;;19.70;99.90;;;;;;5019191;28;20071;-71
2023/08/12 09:17:26;;;;;;;7.00;3.67;;;19.70;99.90;;;;;;5036378;28;20183;-71
2023/08/12 09:19:51;;;;;;;7.90;3.58;;;19.80;99.90;;;;;;5037021;28;20052;-71
2023/08/12 09:22:18;;;;;;;6.78;3.30;;;19.70;99.90;;;;;;5036693;28;20117;-70
2023/08/12 09:24:43;;;;;;;9.07;3.38;;;19.70;99.90;;;;;;5036885;28;20499;-70
2023/08/12 09:27:10;;;;;;;6.45;2.97;;;19.70;99.90;;;;;;5036985;28;20054;-70
2023/08/12 09:29:36;;;;;;;6.57;3.10;;;19.60;99.90;;;;;;5019177;28;20041;-70
2023/08/12 09:32:12;;;;;;;6.00;2.97;;;19.60;99.90;;;;;;5036911;28;20046;-70
2023/08/12 09:34:47;;;;;;;5.63;2.80;;;19.60;99.90;;;;;;5035337;28;20384;-70
2023/08/12 09:37:14;;;;;;;4.53;2.10;;;19.60;99.90;;;;;;5052258;28;20045;-71
2023/08/12 09:39:41;;;;;;;5.00;2.10;;;19.60;99.90;;;;;;5036794;28;20396;-71
2023/08/12 09:42:06;;;;;;;4.55;2.20;;;19.50;99.90;;;;;;5035423;28;20400;-71
2023/08/12 09:44:35;;;;;;;4.32;1.95;;;19.50;99.90;;;;;;5018901;28;20079;-70
2023/08/12 09:47:01;;;;;;;6.55;2.03;;;19.50;99.90;;;;;;5036715;28;20100;-70
2023/08/12 09:49:27;;;;;;;4.65;1.92;;;19.50;99.90;;;;;;5035459;28;20049;-70
2023/08/12 09:51:53;;;;;;;3.97;1.67;;;19.50;99.90;;;;;;5036792;28;20049;-70
2023/08/12 09:54:19;;;;;;;5.47;2.20;;;19.50;99.90;;;;;;5035495;28;20103;-70
2023/08/12 09:56:48;;;;;;;4.22;2.20;;;19.50;99.90;;;;;;5035303;28;20100;-70
2023/08/12 09:59:22;;;;;;;3.97;1.85;;;19.60;99.90;;;;;;5035309;28;20041;-70
2023/08/12 10:01:48;;;;;;;3.60;1.77;;;19.50;99.90;;;;;;5036479;28;20056;-70
2023/08/12 10:04:16;;;;;;;3.78;2.08;;;19.50;99.90;;;;;;5036694;28;20087;-70
2023/08/12 10:06:43;;;;;;;3.42;1.85;;;19.50;99.90;;;;;;5035604;28;20037;-70
2023/08/12 10:09:11;;;;;;;4.30;1.58;;;19.50;99.90;;;;;;5034281;28;20051;-70
2023/08/12 10:11:37;;;;;;;3.33;1.88;;;19.50;99.90;;;;;;5032145;28;20045;-70
2023/08/12 10:14:04;;;;;;;4.60;2.03;;;19.40;99.90;;;;;;5033309;28;20037;-70
2023/08/12 10:16:30;;;;;;;3.25;1.90;;;19.40;99.90;;;;;;5033253;28;20448;-70
2023/08/12 10:18:57;;;;;;;5.18;2.17;;;19.40;99.90;;;;;;5032284;28;20077;-70
2023/08/12 10:21:24;;;;;;;4.43;1.90;;;19.40;99.90;;;;;;5032037;28;20052;-70
2023/08/12 10:23:50;;;;;;;4.32;2.15;;;19.40;99.90;;;;;;5031930;28;20052;-70
2023/08/12 10:26:17;;;;;;;3.60;1.77;;;19.40;99.90;;;;;;5033144;28;20038;-70
2023/08/12 10:28:43;;;;;;;6.97;1.85;;;19.40;99.90;;;;;;5048491;28;20048;-70
2023/08/12 10:31:11;;;;;;;4.78;1.77;;;19.50;99.90;;;;;;5033318;28;20112;-70
2023/08/12 10:33:40;;;;;;;4.90;2.00;;;19.50;99.90;;;;;;5033138;28;20033;-70
2023/08/12 10:36:07;;;;;;;5.35;2.60;;;19.50;99.90;;;;;;5033006;28;20448;-70
2023/08/12 10:38:33;;;;;;;4.05;1.60;;;19.50;99.90;;;;;;5033260;28;20034;-70
2023/08/12 10:41:17;;;;;;;4.93;2.10;;;19.50;99.90;;;;;;5048388;28;20395;-70
2023/08/12 10:44:05;;;;;;;3.92;1.83;;;19.50;99.90;;;;;;5031547;28;20052;-70
2023/08/12 10:46:36;;;;;;;3.95;2.10;;;19.50;99.90;;;;;;5032902;28;20030;-70
2023/08/12 10:49:02;;;;;;;4.57;1.77;;;19.60;99.90;;;;;;5032800;28;20045;-70
2023/08/12 10:52:01;;;;;;;3.63;2.00;;;19.60;99.90;;;;;;5015032;28;20449;-70
2023/08/12 10:54:31;;;;;;;2.67;1.40;;;19.60;99.90;;;;;;5031099;28;20384;-70
2023/08/12 10:57:02;;;;;;;3.00;1.58;;;19.60;99.90;;;;;;5048100;28;20510;-70
2023/08/12 10:59:53;;;;;;;3.53;1.50;;;19.70;99.90;;;;;;5031179;28;20041;-70
2023/08/12 11:02:30;;;;;;;3.03;1.60;;;19.70;99.90;;;;;;5032407;28;20045;-70
2023/08/12 11:05:02;;;;;;;2.85;1.42;;;19.70;99.90;;;;;;5014969;28;20064;-70
2023/08/12 11:07:46;;;;;;;2.03;1.00;;;19.70;99.90;;;;;;5031087;28;20128;-70
2023/08/12 11:10:19;;;;;;;2.25;0.80;;;19.60;99.90;;;;;;5032425;28;20053;-71
2023/08/12 11:13:04;;;;;;;1.10;0.40;;;19.60;99.90;;;;;;5014291;28;20136;-71
2023/08/12 11:15:37;;;;;;;1.65;0.40;;;19.60;99.90;;;;;;5032327;28;20043;-71
2023/08/12 11:18:07;;;;;;;1.08;0.30;;;19.60;99.90;;;;;;5031034;28;20042;-71
2023/08/12 11:20:34;;;;;;;0.50;0.30;;;19.60;99.90;;;;;;5030426;28;20041;-71
2023/08/12 11:23:00;;;;;;;1.00;0.40;;;19.70;99.90;;;;;;5030881;28;20080;-71
2023/08/12 11:25:29;;;;;;;0.77;0.32;;;19.80;99.90;;;;;;5031830;28;20567;-71
2023/08/12 11:27:55;;;;;;;1.55;0.50;;;19.70;99.90;;;;;;5030799;28;20111;-71
2023/08/12 11:30:22;;;;;;;1.08;0.30;;;19.80;99.90;;;;;;5032107;28;20051;-71
2023/08/12 11:32:49;;;;;;;0.77;0.35;;;19.80;99.90;;;;;;5032185;28;20117;-71
2023/08/12 11:35:16;;;;;;;0.35;0.20;;;19.80;99.90;;;;;;5047038;28;20460;-71
2023/08/12 11:37:47;;;;;;;0.73;0.30;;;19.80;99.90;;;;;;5047353;28;20052;-71
2023/08/12 11:40:16;;;;;;;1.05;0.40;;;19.80;99.90;;;;;;5030536;28;20049;-71
2023/08/12 11:42:44;;;;;;;2.47;0.40;;;19.90;99.90;;;;;;5030654;28;20041;-71
2023/08/12 11:45:10;;;;;;;0.98;0.50;;;19.90;99.90;;;;;;5063516;28;20037;-71
2023/08/12 11:47:39;;;;;;;2.10;0.50;;;19.90;99.90;;;;;;5031727;28;20033;-71
2023/08/12 11:50:06;;;;;;;0.63;0.20;;;20.00;99.90;;;;;;5031720;28;20037;-71
2023/08/12 11:52:31;;;;;;;0.85;0.30;;;20.00;99.90;;;;;;5031199;28;20050;-71
2023/08/12 11:54:58;;;;;;;1.13;0.40;;;20.00;99.90;;;;;;5031914;28;20037;-71
2023/08/12 11:57:24;;;;;;;1.42;0.50;;;20.00;99.90;;;;;;5031880;28;20379;-71
2023/08/12 11:59:50;;;;;;;1.13;0.50;;;20.10;99.90;;;;;;5031581;28;20037;-71
2023/08/12 12:02:16;;;;;;;0.93;0.55;;;20.10;99.90;;;;;;5031344;28;20077;-71
2023/08/12 12:04:44;;;;;;;1.27;0.40;;;20.10;99.90;;;;;;5031309;28;20140;-71
2023/08/12 12:07:21;;;;;;;1.15;0.43;;;20.20;99.90;;;;;;5029968;28;20041;-71
2023/08/12 12:09:49;;;;;;;2.20;0.70;;;20.20;99.90;;;;;;5046959;28;20562;-71
2023/08/12 12:12:15;;;;;;;2.13;0.80;;;20.30;99.90;;;;;;5046437;28;20056;-71
2023/08/12 12:14:41;;;;;;;1.65;0.75;;;20.30;99.90;;;;;;5029856;28;20037;-71
2023/08/12 12:17:13;;;;;;;1.80;0.70;;;20.40;99.90;;;;;;5029773;28;20399;-71
2023/08/12 12:19:40;;;;;;;2.28;0.65;;;20.40;99.90;;;;;;5029777;28;20490;-71
2023/08/12 12:22:06;;;;;;;1.17;0.60;;;20.40;99.90;;;;;;5031386;28;20038;-71
2023/08/12 12:24:43;;;;;;;1.88;0.80;;;20.40;99.90;;;;;;5031169;28;20084;-71
2023/08/12 12:27:09;;;;;;;1.15;0.43;;;20.30;99.90;;;;;;5030602;28;20581;-71
2023/08/12 12:29:34;;;;;;;2.17;0.70;;;20.10;99.90;;;;;;5030943;28;20041;-71
2023/08/12 12:32:00;;;;;;;1.50;0.70;;;20.00;99.90;;;;;;5028954;28;20037;-71
2023/08/12 12:34:25;;;;;;;1.73;0.65;;;20.00;99.90;;;;;;5046118;28;20056;-71
2023/08/12 12:36:51;;;;;;;2.67;0.73;;;20.00;99.90;;;;;;5029435;28;20080;-71
2023/08/12 12:39:17;;;;;;;2.03;0.50;;;20.10;99.90;;;;;;5013073;28;20419;-71
2023/08/12 12:41:42;;;;;;;1.85;0.50;;;20.10;99.90;;;;;;5046428;28;20102;-71